Time;durP1;ratioP1;P1;durP2;ratioP2;P2;SDS_P1;SDS_P2;PMS_P1;PMS_P2;Temp;Humidity;BMP_temperature;BMP_pressure;BME280_temperature;BME280_humidity;BME280_pressure;Samples;Min_cycle;Max_cycle;Signal;HPM_P1;HPM_P2
2024/01/26 00:00:14;;;;;;;3.20;2.80;;;23.10;54.00;;;;;;5049060;28;20861;-78
2024/01/26 00:02:44;;;;;;;5.83;2.47;;;23.10;54.00;;;;;;5050183;28;20549;-77
2024/01/26 00:05:13;;;;;;;4.83;2.23;;;23.10;54.00;;;;;;5046946;28;20964;-77
2024/01/26 00:07:42;;;;;;;4.50;3.77;;;23.10;54.00;;;;;;5058493;28;20486;-77
2024/01/26 00:10:10;;;;;;;2.87;2.43;;;23.10;53.90;;;;;;5049141;28;20542;-78
2024/01/26 00:12:39;;;;;;;4.97;2.73;;;23.10;53.90;;;;;;5058020;28;20532;-77
2024/01/26 00:15:08;;;;;;;3.63;2.47;;;23.10;53.90;;;;;;5057637;28;20443;-78
2024/01/26 00:17:36;;;;;;;2.77;2.47;;;23.10;53.90;;;;;;5044869;28;20488;-78
2024/01/26 00:20:09;;;;;;;2.43;2.07;;;23.20;53.90;;;;;;5051038;28;20450;-78
2024/01/26 00:22:37;;;;;;;2.70;1.77;;;23.20;53.80;;;;;;5038727;28;20853;-77
2024/01/26 00:25:06;;;;;;;2.73;2.50;;;23.20;53.80;;;;;;5055038;28;20483;-77
2024/01/26 00:27:35;;;;;;;2.30;2.20;;;23.20;53.80;;;;;;5056019;28;21450;-78
2024/01/26 00:30:06;;;;;;;3.27;2.17;;;23.20;53.80;;;;;;5053975;28;21010;-78
2024/01/26 00:32:34;;;;;;;2.73;2.50;;;23.20;53.80;;;;;;5046275;28;20463;-77
2024/01/26 00:35:04;;;;;;;2.53;2.33;;;23.20;53.80;;;;;;5052183;28;20446;-77
2024/01/26 00:37:33;;;;;;;1.97;1.80;;;23.20;53.70;;;;;;5049375;28;20530;-78
2024/01/26 00:40:03;;;;;;;3.37;2.13;;;23.20;53.70;;;;;;5042025;28;20461;-77
2024/01/26 00:42:31;;;;;;;3.03;2.03;;;23.20;53.70;;;;;;5044242;28;20863;-78
2024/01/26 00:44:59;;;;;;;4.80;2.10;;;23.20;53.70;;;;;;5032151;28;20480;-77
2024/01/26 00:47:28;;;;;;;3.53;2.20;;;23.10;53.70;;;;;;5041202;28;20454;-77
2024/01/26 00:49:56;;;;;;;2.00;1.80;;;23.20;53.80;;;;;;5051193;28;20458;-77
2024/01/26 00:52:24;;;;;;;4.30;2.30;;;23.10;53.70;;;;;;5051007;28;20920;-78
2024/01/26 00:54:54;;;;;;;2.47;1.77;;;23.10;53.80;;;;;;5050994;28;20477;-77
2024/01/26 00:57:22;;;;;;;3.37;2.37;;;23.10;53.80;;;;;;5077341;28;21015;-78
2024/01/26 00:59:51;;;;;;;2.70;2.50;;;23.10;53.90;;;;;;5045129;28;20451;-77
2024/01/26 01:02:20;;;;;;;2.23;2.10;;;23.10;53.90;;;;;;5046815;28;20467;-77
2024/01/26 01:04:48;;;;;;;3.60;2.00;;;23.10;53.90;;;;;;5037221;28;20510;-77
2024/01/26 01:07:16;;;;;;;1.80;1.70;;;23.10;53.90;;;;;;5051160;28;20482;-77
2024/01/26 01:09:45;;;;;;;3.10;2.67;;;23.10;53.80;;;;;;5050502;28;20459;-77
2024/01/26 01:12:14;;;;;;;2.60;2.40;;;23.10;53.90;;;;;;5048105;28;20455;-78
2024/01/26 01:14:44;;;;;;;3.13;2.80;;;23.10;53.90;;;;;;5049129;28;20466;-78
2024/01/26 01:17:12;;;;;;;2.17;1.97;;;23.10;54.00;;;;;;5051066;28;20485;-78
2024/01/26 01:19:42;;;;;;;2.30;2.20;;;23.00;53.90;;;;;;5050094;28;20467;-78
2024/01/26 01:22:10;;;;;;;1.67;1.57;;;23.00;54.00;;;;;;5047260;28;20550;-78
2024/01/26 01:24:39;;;;;;;2.30;1.60;;;23.00;53.90;;;;;;5050357;28;20446;-78
2024/01/26 01:27:07;;;;;;;2.40;2.20;;;23.00;53.90;;;;;;5050602;28;20486;-78
2024/01/26 01:29:36;;;;;;;2.60;2.17;;;23.00;53.90;;;;;;5051241;28;20455;-76
2024/01/26 01:32:05;;;;;;;2.07;1.97;;;23.00;53.90;;;;;;5045062;28;20551;-77
2024/01/26 01:34:34;;;;;;;2.93;2.63;;;23.00;53.90;;;;;;5054664;28;20974;-77
2024/01/26 01:37:02;;;;;;;2.47;2.27;;;23.00;53.90;;;;;;5050772;28;20548;-76
2024/01/26 01:39:30;;;;;;;1.57;1.47;;;23.10;53.90;;;;;;5047792;28;20481;-76
2024/01/26 01:41:58;;;;;;;2.17;2.03;;;23.00;53.90;;;;;;5050208;28;20555;-76
2024/01/26 01:44:27;;;;;;;2.30;2.10;;;23.10;53.90;;;;;;5052005;28;20516;-76
2024/01/26 01:46:57;;;;;;;4.77;2.00;;;23.10;53.90;;;;;;5054378;28;20443;-76
2024/01/26 01:49:25;;;;;;;2.27;1.80;;;23.10;53.90;;;;;;5054439;28;21001;-77
2024/01/26 01:51:55;;;;;;;3.27;2.40;;;23.10;53.90;;;;;;5052964;28;20531;-77
2024/01/26 01:54:25;;;;;;;1.83;1.73;;;23.10;53.90;;;;;;5050870;28;20469;-77
2024/01/26 01:56:54;;;;;;;2.03;1.83;;;23.10;53.90;;;;;;5053332;28;20447;-77
2024/01/26 01:59:22;;;;;;;2.13;2.03;;;23.10;53.90;;;;;;5035836;28;20529;-77
2024/01/26 02:01:51;;;;;;;1.97;1.87;;;23.10;53.90;;;;;;5050228;28;20857;-77
2024/01/26 02:04:20;;;;;;;1.83;1.70;;;23.10;53.90;;;;;;5048645;28;20447;-77
2024/01/26 02:06:54;;;;;;;2.07;1.90;;;23.10;53.90;;;;;;5054032;28;20470;-77
2024/01/26 02:09:23;;;;;;;2.63;2.30;;;23.10;53.90;;;;;;5047705;28;20938;-77
2024/01/26 02:11:52;;;;;;;2.77;2.40;;;23.10;53.90;;;;;;5049722;28;20458;-77
2024/01/26 02:14:20;;;;;;;2.13;1.93;;;23.10;53.90;;;;;;5050413;28;20451;-77
2024/01/26 02:16:55;;;;;;;2.47;1.60;;;23.10;53.90;;;;;;5047066;28;20524;-77
2024/01/26 02:19:26;;;;;;;2.60;1.90;;;23.10;53.90;;;;;;5061621;28;20474;-77
2024/01/26 02:24:49;;;;;;;2.30;2.10;;;23.10;53.90;;;;;;5069402;27;21105;-66
2024/01/26 02:27:19;;;;;;;4.03;1.90;;;23.10;53.90;;;;;;5063414;28;20465;-66
2024/01/26 02:29:47;;;;;;;3.20;2.37;;;23.10;53.90;;;;;;5054414;28;20462;-65
2024/01/26 02:32:15;;;;;;;2.47;2.07;;;23.10;54.00;;;;;;5055298;28;20470;-65
2024/01/26 02:34:43;;;;;;;2.10;1.90;;;23.10;54.00;;;;;;5072541;28;20457;-68
2024/01/26 02:37:11;;;;;;;2.37;2.00;;;23.00;53.90;;;;;;5068100;28;20419;-64
2024/01/26 02:39:40;;;;;;;2.07;1.80;;;23.00;54.00;;;;;;5067778;28;20443;-66
2024/01/26 02:42:09;;;;;;;2.20;2.00;;;23.10;54.00;;;;;;5068213;28;20811;-65
2024/01/26 02:44:37;;;;;;;2.23;2.10;;;23.00;54.00;;;;;;5065686;28;20495;-67
2024/01/26 02:47:06;;;;;;;2.83;2.60;;;23.00;54.10;;;;;;5062318;28;21134;-65
2024/01/26 02:49:34;;;;;;;1.53;1.40;;;23.00;54.10;;;;;;5064609;28;20511;-65
2024/01/26 02:52:02;;;;;;;3.50;1.97;;;23.00;54.10;;;;;;5065510;28;20536;-66
2024/01/26 02:54:31;;;;;;;2.00;1.90;;;23.00;54.10;;;;;;5063416;28;20968;-65
2024/01/26 02:56:59;;;;;;;4.03;2.00;;;23.00;54.10;;;;;;5066667;28;20445;-68
2024/01/26 02:59:29;;;;;;;1.97;1.53;;;23.00;54.10;;;;;;5063355;28;20442;-65
2024/01/26 03:01:57;;;;;;;2.07;1.90;;;23.00;54.10;;;;;;5062964;28;20462;-68
2024/01/26 03:04:25;;;;;;;1.80;1.70;;;23.00;54.10;;;;;;5069014;28;20481;-65
2024/01/26 03:06:55;;;;;;;20.53;4.33;;;23.00;54.10;;;;;;5058421;28;20978;-69
2024/01/26 03:09:24;;;;;;;1.70;1.60;;;23.00;54.10;;;;;;5054766;28;20543;-67
2024/01/26 03:11:52;;;;;;;3.00;1.60;;;23.00;54.10;;;;;;5063605;28;20434;-67
2024/01/26 03:14:21;;;;;;;2.87;2.43;;;23.00;54.10;;;;;;5072757;28;20955;-65
2024/01/26 03:16:50;;;;;;;1.70;1.60;;;23.00;54.10;;;;;;5066080;28;20457;-65
2024/01/26 03:19:19;;;;;;;1.87;1.77;;;23.00;54.10;;;;;;5047622;28;20427;-66
2024/01/26 03:21:47;;;;;;;1.90;1.80;;;23.00;54.10;;;;;;5047208;28;20480;-65
2024/01/26 03:24:15;;;;;;;2.30;2.10;;;23.00;54.10;;;;;;5083059;28;21003;-65
2024/01/26 03:26:44;;;;;;;2.00;1.80;;;23.00;54.00;;;;;;5054108;28;20806;-67
2024/01/26 03:29:12;;;;;;;3.20;1.70;;;23.00;54.00;;;;;;5059900;28;20461;-65
2024/01/26 03:31:40;;;;;;;1.80;1.70;;;23.00;54.10;;;;;;5070455;28;20455;-67
2024/01/26 03:34:10;;;;;;;1.60;1.50;;;23.00;54.10;;;;;;5063118;28;20489;-64
2024/01/26 03:36:38;;;;;;;2.50;2.30;;;23.00;54.10;;;;;;5053630;28;20455;-65
2024/01/26 03:39:09;;;;;;;2.03;1.83;;;23.00;54.00;;;;;;5039447;28;20554;-65
2024/01/26 03:41:40;;;;;;;1.70;1.60;;;23.00;54.10;;;;;;5035830;28;20803;-65
2024/01/26 03:44:09;;;;;;;1.83;1.73;;;22.90;54.10;;;;;;5048393;28;20517;-65
2024/01/26 03:46:42;;;;;;;1.57;1.47;;;22.90;54.10;;;;;;5053681;28;20856;-66
2024/01/26 03:49:11;;;;;;;3.40;2.10;;;22.90;54.10;;;;;;5055139;28;20431;-65
2024/01/26 03:51:40;;;;;;;2.03;1.93;;;22.90;54.10;;;;;;5053346;28;20866;-65
2024/01/26 03:54:08;;;;;;;1.80;1.70;;;22.90;54.10;;;;;;5068876;28;20442;-65
2024/01/26 03:56:37;;;;;;;1.80;1.70;;;22.90;54.20;;;;;;5041593;28;20497;-68
2024/01/26 03:59:05;;;;;;;1.90;1.80;;;22.90;54.10;;;;;;5038649;28;20545;-65
2024/01/26 04:01:33;;;;;;;2.70;2.00;;;22.90;54.20;;;;;;5054612;28;20458;-64
2024/01/26 04:04:02;;;;;;;1.93;1.77;;;22.90;54.20;;;;;;5068521;28;20473;-65
2024/01/26 04:06:40;;;;;;;2.10;1.90;;;22.90;54.20;;;;;;5073539;28;20446;-66
2024/01/26 04:09:09;;;;;;;1.77;1.67;;;22.90;54.20;;;;;;5073605;28;20442;-65
2024/01/26 04:11:37;;;;;;;1.40;1.30;;;22.90;54.20;;;;;;5073136;28;20482;-64
2024/01/26 04:14:06;;;;;;;2.03;1.87;;;22.90;54.20;;;;;;5052845;28;20834;-65
2024/01/26 04:16:34;;;;;;;1.67;1.50;;;22.80;54.20;;;;;;5047471;28;20454;-68
2024/01/26 04:19:02;;;;;;;2.00;1.90;;;22.80;54.20;;;;;;5034526;28;20456;-66
2024/01/26 04:21:31;;;;;;;2.53;1.80;;;22.80;54.20;;;;;;5050477;28;20462;-65
2024/01/26 04:24:00;;;;;;;1.83;1.73;;;22.80;54.30;;;;;;5067882;28;20489;-64
2024/01/26 04:26:29;;;;;;;1.83;1.73;;;22.80;54.30;;;;;;5073124;28;20953;-66
2024/01/26 04:28:58;;;;;;;1.50;1.40;;;22.80;54.30;;;;;;5053357;28;20554;-67
2024/01/26 04:31:26;;;;;;;1.70;1.60;;;22.80;54.30;;;;;;5047651;28;20454;-64
2024/01/26 04:33:54;;;;;;;1.70;1.60;;;22.80;54.30;;;;;;5047614;28;20477;-67
2024/01/26 04:36:23;;;;;;;2.10;1.23;;;22.80;54.30;;;;;;5039248;28;20473;-65
2024/01/26 04:38:51;;;;;;;2.33;1.60;;;22.90;54.30;;;;;;5051216;28;20482;-65
2024/01/26 04:41:21;;;;;;;1.53;1.43;;;22.90;54.30;;;;;;5058331;28;20446;-67
2024/01/26 04:43:49;;;;;;;2.00;1.90;;;22.90;54.30;;;;;;5055359;28;20460;-68
2024/01/26 04:46:17;;;;;;;1.70;1.60;;;23.00;54.30;;;;;;5041100;28;20944;-65
2024/01/26 04:48:45;;;;;;;1.83;1.73;;;23.00;54.20;;;;;;5049267;28;20814;-66
2024/01/26 04:51:14;;;;;;;1.43;1.33;;;23.00;54.10;;;;;;5043708;28;20455;-66
2024/01/26 04:53:42;;;;;;;1.50;1.40;;;23.10;54.10;;;;;;5040022;28;20465;-66
2024/01/26 04:56:11;;;;;;;1.60;1.50;;;23.10;54.00;;;;;;5048750;28;20457;-67
2024/01/26 04:58:41;;;;;;;2.13;2.00;;;23.10;53.90;;;;;;5071524;28;20436;-66
2024/01/26 05:01:10;;;;;;;1.73;1.63;;;23.10;53.90;;;;;;5043101;28;20458;-66
2024/01/26 05:03:39;;;;;;;1.77;1.67;;;23.10;53.90;;;;;;5045245;28;20869;-66
2024/01/26 05:06:07;;;;;;;1.60;1.50;;;23.10;53.90;;;;;;5047245;28;20610;-65
2024/01/26 05:08:36;;;;;;;1.40;1.30;;;23.10;53.80;;;;;;5044950;28;20512;-67
2024/01/26 05:11:05;;;;;;;1.83;1.30;;;23.10;53.90;;;;;;5047608;28;20475;-66
2024/01/26 05:13:33;;;;;;;1.80;1.40;;;23.10;53.90;;;;;;5050317;28;20444;-67
2024/01/26 05:16:03;;;;;;;1.50;1.40;;;23.10;53.90;;;;;;5041577;28;20474;-66
2024/01/26 05:18:31;;;;;;;1.60;1.50;;;23.00;54.00;;;;;;5050641;28;20454;-67
2024/01/26 05:20:59;;;;;;;1.90;1.80;;;23.00;54.00;;;;;;5049902;28;20935;-66
2024/01/26 05:23:28;;;;;;;2.03;1.93;;;23.00;54.10;;;;;;5048375;28;20490;-69
2024/01/26 05:25:56;;;;;;;1.50;1.40;;;23.00;54.10;;;;;;5047177;28;20474;-66
2024/01/26 05:28:25;;;;;;;1.73;1.50;;;22.90;54.20;;;;;;5049295;28;20454;-68
2024/01/26 05:30:53;;;;;;;1.70;1.60;;;22.90;54.20;;;;;;5042755;28;20468;-68
2024/01/26 05:33:23;;;;;;;1.43;1.33;;;22.90;54.20;;;;;;5040730;28;20495;-65
2024/01/26 05:35:52;;;;;;;1.60;1.50;;;22.90;54.30;;;;;;5044572;28;20474;-65
2024/01/26 05:38:21;;;;;;;1.97;1.80;;;22.90;54.30;;;;;;5042982;28;20509;-67
2024/01/26 05:40:49;;;;;;;1.57;1.47;;;22.90;54.30;;;;;;5044730;28;20462;-66
2024/01/26 05:43:17;;;;;;;1.60;1.50;;;22.80;54.30;;;;;;5045031;28;20871;-68
2024/01/26 05:45:46;;;;;;;1.37;1.27;;;22.80;54.30;;;;;;5047735;28;20568;-70
2024/01/26 05:48:14;;;;;;;1.50;1.40;;;22.80;54.30;;;;;;5039618;28;20466;-67
2024/01/26 05:50:45;;;;;;;1.60;1.50;;;22.80;54.40;;;;;;5047859;28;20442;-65
2024/01/26 05:53:13;;;;;;;1.60;1.50;;;22.80;54.40;;;;;;5045924;28;20508;-67
2024/01/26 05:55:42;;;;;;;1.80;1.27;;;22.80;54.50;;;;;;5043815;28;20455;-66
2024/01/26 05:58:10;;;;;;;1.80;1.60;;;22.80;54.60;;;;;;5044400;28;20470;-63
2024/01/26 06:00:38;;;;;;;1.70;1.47;;;22.80;54.60;;;;;;5038189;28;20575;-65
2024/01/26 06:03:07;;;;;;;1.93;1.83;;;22.80;54.60;;;;;;5040452;28;20485;-66
2024/01/26 06:05:35;;;;;;;1.17;1.17;;;22.80;54.60;;;;;;5042994;28;20524;-68
2024/01/26 06:08:06;;;;;;;1.53;1.40;;;22.90;54.60;;;;;;5038693;28;20457;-67
2024/01/26 06:10:34;;;;;;;3.27;1.60;;;22.90;54.60;;;;;;5042466;28;20827;-65
2024/01/26 06:13:03;;;;;;;2.10;1.37;;;22.90;54.60;;;;;;5055680;28;20468;-65
2024/01/26 06:15:31;;;;;;;1.47;1.37;;;22.90;54.60;;;;;;5046911;28;20844;-65
2024/01/26 06:17:59;;;;;;;2.13;1.50;;;22.90;54.60;;;;;;5040757;28;20923;-65
2024/01/26 06:20:31;;;;;;;1.40;1.20;;;22.90;54.50;;;;;;5030399;28;20524;-69
2024/01/26 06:22:59;;;;;;;1.97;1.20;;;22.90;54.50;;;;;;5034665;28;21556;-66
2024/01/26 06:25:29;;;;;;;2.60;1.40;;;22.90;54.60;;;;;;5041693;28;20479;-66
2024/01/26 06:31:59;;;;;;;1.63;1.53;;;22.90;54.60;;;;;;5039174;28;20867;-69
2024/01/26 06:34:28;;;;;;;1.87;1.50;;;22.90;54.70;;;;;;5048287;28;21029;-67
2024/01/26 06:36:57;;;;;;;1.90;1.30;;;22.90;54.70;;;;;;5041044;28;20458;-66
2024/01/26 06:39:27;;;;;;;1.17;1.07;;;22.90;54.70;;;;;;5044546;28;20462;-66
2024/01/26 06:41:56;;;;;;;1.90;1.80;;;22.80;54.70;;;;;;5030815;28;20532;-70
2024/01/26 06:44:25;;;;;;;1.83;1.47;;;22.80;54.80;;;;;;5040789;28;20454;-66
2024/01/26 06:46:54;;;;;;;1.70;1.60;;;22.80;54.80;;;;;;5044651;28;20481;-67
2024/01/26 06:49:22;;;;;;;2.83;1.73;;;22.80;54.70;;;;;;5049396;28;20539;-67
2024/01/26 06:51:50;;;;;;;1.73;1.63;;;22.80;54.80;;;;;;5037143;28;20572;-69
2024/01/26 06:54:19;;;;;;;2.07;1.73;;;22.80;54.70;;;;;;5038743;28;20461;-66
2024/01/26 06:56:47;;;;;;;1.23;1.13;;;22.70;54.70;;;;;;5027491;28;20874;-67
2024/01/26 06:59:17;;;;;;;2.30;1.60;;;22.70;54.70;;;;;;5042905;28;20930;-69
2024/01/26 07:01:45;;;;;;;1.70;1.60;;;22.70;54.70;;;;;;5042495;28;20450;-67
2024/01/26 07:04:13;;;;;;;2.17;1.77;;;22.70;54.70;;;;;;5042579;28;20465;-66
2024/01/26 07:06:41;;;;;;;3.73;1.77;;;22.70;54.70;;;;;;5035064;28;20493;-66
2024/01/26 07:09:10;;;;;;;2.10;1.97;;;22.70;54.70;;;;;;5036711;28;20444;-67
2024/01/26 07:11:38;;;;;;;2.93;1.73;;;22.70;54.70;;;;;;5048353;28;20551;-66
2024/01/26 07:14:07;;;;;;;2.80;1.93;;;22.70;54.80;;;;;;5051655;28;20794;-66
2024/01/26 07:16:36;;;;;;;1.63;1.27;;;22.70;54.80;;;;;;5049090;28;20562;-68
2024/01/26 07:19:05;;;;;;;3.33;1.63;;;22.70;54.80;;;;;;5041442;28;20453;-70
2024/01/26 07:21:33;;;;;;;2.37;2.10;;;22.70;54.80;;;;;;5046692;28;20449;-68
2024/01/26 07:24:01;;;;;;;2.33;2.13;;;22.70;54.80;;;;;;5037396;28;20957;-68
2024/01/26 07:26:30;;;;;;;2.80;1.53;;;22.70;54.80;;;;;;5044129;28;20470;-66
2024/01/26 07:29:00;;;;;;;3.40;2.43;;;22.70;54.80;;;;;;5045543;28;20547;-66
2024/01/26 07:31:30;;;;;;;2.23;1.97;;;22.80;54.80;;;;;;5042622;28;20450;-66
2024/01/26 07:34:01;;;;;;;3.67;1.90;;;22.80;54.80;;;;;;5046168;28;20450;-66
2024/01/26 07:36:31;;;;;;;3.10;1.93;;;22.80;54.80;;;;;;5045998;28;20465;-66
2024/01/26 07:39:01;;;;;;;2.30;1.73;;;22.80;54.70;;;;;;5045503;28;20962;-68
2024/01/26 07:41:33;;;;;;;4.77;2.40;;;22.80;54.70;;;;;;5051979;28;20515;-67
2024/01/26 07:44:04;;;;;;;4.13;1.67;;;22.80;54.70;;;;;;5050107;28;20480;-66
2024/01/26 07:46:33;;;;;;;2.87;2.00;;;22.80;54.60;;;;;;5045750;28;20989;-66
2024/01/26 07:49:04;;;;;;;2.07;1.50;;;22.80;54.60;;;;;;5042227;28;20513;-67
2024/01/26 07:51:33;;;;;;;3.47;2.00;;;22.80;54.50;;;;;;5045444;28;20473;-66
2024/01/26 07:54:01;;;;;;;2.97;1.90;;;22.80;54.50;;;;;;5047829;28;20462;-67
2024/01/26 07:56:29;;;;;;;3.50;1.77;;;22.80;54.50;;;;;;5049916;28;20530;-67
2024/01/26 07:58:58;;;;;;;1.87;1.77;;;22.80;54.50;;;;;;5047980;28;20954;-66
2024/01/26 08:01:28;;;;;;;3.07;2.67;;;22.70;54.50;;;;;;5045880;28;20463;-66
2024/01/26 08:03:57;;;;;;;4.47;1.90;;;22.70;54.60;;;;;;5051695;28;20463;-68
2024/01/26 08:06:28;;;;;;;3.47;2.03;;;22.70;54.60;;;;;;5043918;28;20478;-67
2024/01/26 08:08:57;;;;;;;3.47;2.20;;;22.70;54.60;;;;;;5039469;28;20490;-69
2024/01/26 08:11:27;;;;;;;2.20;1.80;;;22.70;54.60;;;;;;5044675;28;20499;-67
2024/01/26 08:13:56;;;;;;;1.67;1.57;;;22.70;54.60;;;;;;5061655;28;20941;-66
2024/01/26 08:16:25;;;;;;;2.13;1.70;;;22.60;54.60;;;;;;5043974;28;20465;-66
2024/01/26 08:18:54;;;;;;;3.10;1.87;;;22.60;54.70;;;;;;5041142;28;20501;-67
2024/01/26 08:21:23;;;;;;;3.63;1.57;;;22.60;54.70;;;;;;5037601;28;20458;-66
2024/01/26 08:23:53;;;;;;;4.97;2.00;;;22.60;54.70;;;;;;5047407;28;20530;-67
2024/01/26 08:26:22;;;;;;;1.90;1.67;;;22.60;54.70;;;;;;5040900;28;20479;-66
2024/01/26 08:28:50;;;;;;;1.93;1.73;;;22.60;54.70;;;;;;5048047;28;20454;-66
2024/01/26 08:31:19;;;;;;;1.40;1.30;;;22.60;54.70;;;;;;5042080;28;20534;-66
2024/01/26 08:33:47;;;;;;;3.20;1.70;;;22.60;54.70;;;;;;5053391;28;20451;-66
2024/01/26 08:36:16;;;;;;;4.00;2.00;;;22.60;54.80;;;;;;5043142;28;20511;-66
2024/01/26 08:38:44;;;;;;;2.80;1.50;;;22.60;54.70;;;;;;5041615;28;20882;-67
2024/01/26 08:41:16;;;;;;;3.00;2.30;;;22.70;54.70;;;;;;5030997;28;20814;-66
2024/01/26 08:43:44;;;;;;;1.73;1.63;;;22.70;54.70;;;;;;5037210;28;20459;-70
2024/01/26 08:46:13;;;;;;;2.87;1.80;;;22.70;54.60;;;;;;5049157;28;20500;-67
2024/01/26 08:48:41;;;;;;;2.63;1.83;;;22.70;54.60;;;;;;5042401;28;20485;-66
2024/01/26 08:51:10;;;;;;;2.70;1.50;;;22.80;54.50;;;;;;5046998;28;20982;-66
2024/01/26 08:53:39;;;;;;;2.30;2.03;;;22.80;54.50;;;;;;5042528;28;20546;-67
2024/01/26 08:56:08;;;;;;;2.83;2.57;;;22.80;54.40;;;;;;5037791;28;20514;-67
2024/01/26 08:58:38;;;;;;;1.60;1.50;;;22.80;54.40;;;;;;5037716;28;20472;-67
2024/01/26 09:01:06;;;;;;;1.50;1.40;;;22.80;54.30;;;;;;5036928;28;20485;-69
2024/01/26 09:03:35;;;;;;;2.23;2.00;;;22.80;54.30;;;;;;5032485;28;21036;-70
2024/01/26 09:06:04;;;;;;;1.97;1.80;;;22.80;54.30;;;;;;5033678;28;20455;-68
2024/01/26 09:08:32;;;;;;;1.73;1.63;;;22.80;54.30;;;;;;5033910;28;20455;-66
2024/01/26 09:11:01;;;;;;;1.73;1.63;;;22.80;54.20;;;;;;5038852;28;20456;-67
2024/01/26 09:13:29;;;;;;;2.60;1.90;;;22.80;54.20;;;;;;5046497;28;20536;-67
2024/01/26 09:15:59;;;;;;;5.13;2.07;;;22.80;54.20;;;;;;5054075;28;20470;-66
2024/01/26 09:18:27;;;;;;;2.30;1.47;;;22.80;54.20;;;;;;5044482;28;20466;-66
2024/01/26 09:21:11;;;;;;;1.57;1.47;;;22.80;54.20;;;;;;5033318;28;20471;-67
2024/01/26 09:23:40;;;;;;;2.00;1.80;;;22.80;54.10;;;;;;5036184;28;21007;-70
2024/01/26 09:26:08;;;;;;;3.47;1.63;;;22.80;54.10;;;;;;5035209;28;20459;-65
2024/01/26 09:28:37;;;;;;;2.57;2.00;;;22.80;54.10;;;;;;5031388;28;20965;-67
2024/01/26 09:31:07;;;;;;;1.80;1.67;;;22.80;54.30;;;;;;5041177;28;20541;-66
2024/01/26 09:33:36;;;;;;;2.10;1.90;;;22.80;54.60;;;;;;5049405;28;20477;-66
2024/01/26 09:36:05;;;;;;;3.40;2.30;;;22.80;54.60;;;;;;5048614;28;20465;-67
2024/01/26 09:38:33;;;;;;;2.50;1.60;;;22.70;54.70;;;;;;5040509;28;20528;-65
2024/01/26 09:41:02;;;;;;;2.03;1.47;;;22.80;54.90;;;;;;5042095;28;20482;-67
2024/01/26 09:43:30;;;;;;;2.33;1.60;;;22.80;54.90;;;;;;5039730;28;20470;-70
2024/01/26 09:45:58;;;;;;;2.27;1.63;;;22.80;55.00;;;;;;5040135;28;20454;-66
2024/01/26 09:48:30;;;;;;;3.70;1.77;;;22.80;55.00;;;;;;5038219;28;20482;-69
2024/01/26 09:50:59;;;;;;;3.60;1.77;;;22.80;55.00;;;;;;5040548;28;20447;-67
2024/01/26 09:53:27;;;;;;;1.87;1.60;;;22.90;55.00;;;;;;5042168;28;20500;-68
2024/01/26 09:55:56;;;;;;;1.97;1.60;;;22.90;55.00;;;;;;5036163;28;20443;-67
2024/01/26 09:58:24;;;;;;;2.50;1.60;;;22.90;55.10;;;;;;5036118;28;20466;-68
2024/01/26 10:00:56;;;;;;;2.80;1.70;;;22.90;55.10;;;;;;5037270;28;20458;-68
2024/01/26 10:03:24;;;;;;;2.80;1.70;;;23.00;55.10;;;;;;5038303;28;20451;-67
2024/01/26 10:05:54;;;;;;;2.73;1.80;;;23.00;55.10;;;;;;5036717;28;20849;-68
2024/01/26 10:08:23;;;;;;;1.70;1.20;;;23.00;55.00;;;;;;5049046;28;20471;-67
2024/01/26 10:10:51;;;;;;;2.40;1.90;;;23.10;55.10;;;;;;5036370;28;21009;-66
2024/01/26 10:13:19;;;;;;;3.87;1.83;;;23.10;55.00;;;;;;5047377;28;20442;-66
2024/01/26 10:15:48;;;;;;;4.53;1.67;;;23.10;55.10;;;;;;5035139;28;20473;-70
2024/01/26 10:18:16;;;;;;;2.40;1.80;;;23.10;55.00;;;;;;5045107;28;20922;-66
2024/01/26 10:20:45;;;;;;;2.53;1.30;;;23.10;55.00;;;;;;5050030;28;20451;-66
2024/01/26 10:23:15;;;;;;;2.00;1.20;;;23.20;54.90;;;;;;5047210;28;20489;-67
2024/01/26 10:25:45;;;;;;;1.80;1.40;;;23.20;54.90;;;;;;5046917;28;20553;-70
2024/01/26 10:28:14;;;;;;;1.57;1.30;;;23.20;54.90;;;;;;5040649;28;21292;-70
2024/01/26 10:30:46;;;;;;;1.97;1.47;;;23.20;55.00;;;;;;5045212;28;20479;-65
2024/01/26 10:33:15;;;;;;;1.57;1.47;;;23.20;54.90;;;;;;5049022;28;20457;-66
2024/01/26 10:35:47;;;;;;;1.87;1.43;;;23.20;54.90;;;;;;5047037;28;20450;-66
2024/01/26 10:38:18;;;;;;;1.20;1.10;;;23.20;54.90;;;;;;5040903;28;20998;-67
2024/01/26 10:40:46;;;;;;;2.90;1.63;;;23.20;55.00;;;;;;5047088;28;20459;-68
2024/01/26 10:43:18;;;;;;;1.50;1.40;;;23.20;54.90;;;;;;5049471;28;21178;-66
2024/01/26 10:45:47;;;;;;;4.37;3.03;;;23.20;54.90;;;;;;5049838;28;20466;-67
2024/01/26 10:48:17;;;;;;;1.50;1.40;;;23.20;55.00;;;;;;5048439;28;20872;-67
2024/01/26 10:50:47;;;;;;;2.60;1.10;;;23.20;55.00;;;;;;5051964;28;20453;-67
2024/01/26 10:53:18;;;;;;;2.10;1.20;;;23.20;55.00;;;;;;5046110;28;20457;-65
2024/01/26 10:55:50;;;;;;;1.80;1.03;;;23.20;55.00;;;;;;5044728;28;20855;-66
2024/01/26 10:58:18;;;;;;;3.70;1.80;;;23.20;54.90;;;;;;5047618;28;20544;-66
2024/01/26 11:00:47;;;;;;;2.00;1.80;;;23.20;54.90;;;;;;5054233;28;20556;-68
2024/01/26 11:03:16;;;;;;;2.13;1.40;;;23.20;55.00;;;;;;5049624;28;20496;-66
2024/01/26 11:05:49;;;;;;;1.40;1.23;;;23.20;55.00;;;;;;5053529;28;20485;-67
2024/01/26 11:08:24;;;;;;;2.20;1.63;;;23.20;55.00;;;;;;5050519;28;20474;-68
2024/01/26 11:10:56;;;;;;;1.30;1.07;;;23.20;55.00;;;;;;5051688;28;20512;-66
2024/01/26 11:13:24;;;;;;;1.43;1.20;;;23.30;55.00;;;;;;5046302;28;20512;-67
2024/01/26 11:16:03;;;;;;;2.13;1.13;;;23.30;54.90;;;;;;5044089;28;20462;-71
2024/01/26 11:18:35;;;;;;;1.30;1.20;;;23.30;54.90;;;;;;5045654;28;20452;-69
2024/01/26 11:21:04;;;;;;;2.37;1.37;;;23.30;54.50;;;;;;5053435;28;20459;-69
2024/01/26 11:23:41;;;;;;;1.37;1.20;;;23.30;54.40;;;;;;5047614;28;20494;-70
2024/01/26 11:26:14;;;;;;;1.20;1.10;;;23.20;54.40;;;;;;5048423;28;20828;-70
2024/01/26 11:28:44;;;;;;;1.27;1.17;;;23.20;54.20;;;;;;5051124;28;20481;-71
2024/01/26 11:31:13;;;;;;;1.97;1.53;;;23.20;54.20;;;;;;5050853;28;20462;-72
2024/01/26 11:33:41;;;;;;;1.27;1.00;;;23.20;54.20;;;;;;5047892;28;20451;-70
2024/01/26 11:36:11;;;;;;;1.10;1.00;;;23.20;54.20;;;;;;5049120;28;20456;-70
2024/01/26 11:38:44;;;;;;;2.60;1.13;;;23.20;54.20;;;;;;5053157;28;20451;-73
2024/01/26 11:41:13;;;;;;;1.60;1.13;;;23.20;54.20;;;;;;5042994;28;20451;-71
2024/01/26 11:43:45;;;;;;;1.20;1.10;;;23.20;54.20;;;;;;5051475;28;20462;-71
2024/01/26 11:46:15;;;;;;;1.30;1.20;;;23.20;54.20;;;;;;5052092;28;20844;-71
2024/01/26 11:48:43;;;;;;;1.67;1.30;;;23.20;54.10;;;;;;5049656;28;20479;-71
2024/01/26 11:51:12;;;;;;;1.40;1.30;;;23.20;54.10;;;;;;5045186;28;20479;-71
2024/01/26 11:53:42;;;;;;;1.83;1.10;;;23.20;54.10;;;;;;5049324;28;20513;-71
2024/01/26 11:56:10;;;;;;;1.50;1.40;;;23.20;54.00;;;;;;5047092;28;20552;-65
2024/01/26 11:58:39;;;;;;;2.00;1.10;;;23.10;54.10;;;;;;5044278;28;20474;-62
2024/01/26 12:01:08;;;;;;;1.13;1.03;;;23.10;53.90;;;;;;5047044;28;21000;-67
2024/01/26 12:03:36;;;;;;;1.53;1.23;;;23.10;53.70;;;;;;5054394;28;20457;-66
2024/01/26 12:06:05;;;;;;;1.37;1.27;;;23.10;53.70;;;;;;5039697;28;20479;-69
2024/01/26 12:08:34;;;;;;;1.40;1.30;;;23.10;53.70;;;;;;5039221;28;20487;-64
2024/01/26 12:11:04;;;;;;;1.33;1.23;;;23.10;53.70;;;;;;5039885;28;20454;-61
2024/01/26 12:13:33;;;;;;;1.50;1.40;;;23.10;53.70;;;;;;5037782;28;20875;-66
2024/01/26 12:16:03;;;;;;;1.37;1.27;;;23.00;53.70;;;;;;5035030;28;20458;-65
2024/01/26 12:18:31;;;;;;;1.20;1.10;;;23.00;54.00;;;;;;5038991;28;20557;-66
2024/01/26 12:21:00;;;;;;;1.50;1.00;;;23.00;54.00;;;;;;5047913;28;20443;-65
2024/01/26 12:23:28;;;;;;;1.30;1.17;;;22.90;54.10;;;;;;5050091;28;20501;-64
2024/01/26 12:25:56;;;;;;;1.27;1.10;;;22.90;54.20;;;;;;5038480;28;20797;-64
2024/01/26 12:28:30;;;;;;;1.37;1.00;;;22.90;54.20;;;;;;5036434;28;20482;-61
2024/01/26 12:30:58;;;;;;;1.63;1.20;;;22.90;54.30;;;;;;5042249;28;20456;-63
2024/01/26 12:33:27;;;;;;;1.80;1.20;;;22.90;54.40;;;;;;5041689;28;20457;-63
2024/01/26 12:35:56;;;;;;;2.07;1.20;;;22.80;54.40;;;;;;5037364;28;20549;-63
2024/01/26 12:38:24;;;;;;;1.17;1.07;;;22.80;54.50;;;;;;5043841;28;20512;-62
2024/01/26 12:40:53;;;;;;;1.40;1.30;;;22.80;54.40;;;;;;5033514;28;20517;-69
2024/01/26 12:43:21;;;;;;;1.63;1.17;;;22.80;54.50;;;;;;5045443;28;20510;-66
2024/01/26 12:45:51;;;;;;;2.77;1.43;;;22.90;54.50;;;;;;5037573;28;20506;-61
2024/01/26 12:48:20;;;;;;;2.07;1.60;;;22.90;54.50;;;;;;5045568;28;20989;-63
2024/01/26 12:50:49;;;;;;;1.90;1.20;;;22.80;54.50;;;;;;5036259;28;20546;-66
2024/01/26 12:53:18;;;;;;;3.17;1.57;;;22.80;54.50;;;;;;5037849;28;20512;-65
2024/01/26 12:55:48;;;;;;;1.60;1.50;;;22.90;54.50;;;;;;5032739;28;20822;-69
2024/01/26 12:58:17;;;;;;;2.43;1.33;;;22.80;54.50;;;;;;5034867;28;20460;-62
2024/01/26 13:00:45;;;;;;;1.67;1.30;;;22.80;54.40;;;;;;5038486;28;20507;-70
2024/01/26 13:03:15;;;;;;;2.67;1.27;;;22.80;54.40;;;;;;5030821;28;21551;-67